createdAt,value
2022-07-28T00:00:20.179Z,21.58
2022-07-28T00:02:50.723Z,21.58
2022-07-28T00:05:21.045Z,21.59
2022-07-28T00:07:52.740Z,21.61
2022-07-28T00:10:23.424Z,21.62
2022-07-28T00:12:54.246Z,21.66
2022-07-28T00:15:24.821Z,21.66
2022-07-28T00:17:55.154Z,21.66
2022-07-28T00:20:26.675Z,21.69
2022-07-28T00:22:57.177Z,21.70
2022-07-28T00:25:28.757Z,21.74
2022-07-28T00:27:59.499Z,21.75
2022-07-28T00:30:30.939Z,21.79
2022-07-28T00:33:02.135Z,21.81
2022-07-28T00:35:36.323Z,21.81
2022-07-28T00:38:07.390Z,21.82
2022-07-28T00:41:00.844Z,21.82
2022-07-28T00:43:31.491Z,21.86
2022-07-28T00:46:02.108Z,21.87
2022-07-28T00:48:32.060Z,21.89
2022-07-28T00:51:02.780Z,21.88
2022-07-28T00:53:33.581Z,21.89
2022-07-28T00:56:06.559Z,21.89
2022-07-28T00:58:39.585Z,21.93
2022-07-28T01:01:13.223Z,21.94
2022-07-28T01:03:47.406Z,21.96
2022-07-28T01:06:57.357Z,21.99
2022-07-28T01:10:04.079Z,21.98
2022-07-28T01:12:45.143Z,21.98
2022-07-28T01:15:28.375Z,22.00
2022-07-28T01:18:42.753Z,22.03
2022-07-28T01:21:18.297Z,22.03
2022-07-28T01:24:13.008Z,22.05
2022-07-28T01:27:25.518Z,22.08
2022-07-28T01:30:20.547Z,22.08
2022-07-28T01:33:19.445Z,22.10
2022-07-28T01:35:59.839Z,22.12
2022-07-28T01:38:34.379Z,22.12
2022-07-28T01:41:13.372Z,22.09
2022-07-28T01:43:48.320Z,22.09
2022-07-28T01:46:22.456Z,22.10
2022-07-28T01:48:54.663Z,22.12
2022-07-28T01:51:29.208Z,22.14
2022-07-28T01:54:02.527Z,22.14
2022-07-28T01:56:36.304Z,22.19
2022-07-28T01:59:11.403Z,22.24
2022-07-28T02:01:46.570Z,22.26
2022-07-28T02:04:23.760Z,22.28
2022-07-28T02:06:57.490Z,22.30
2022-07-28T02:09:29.990Z,22.33
2022-07-28T02:12:03.566Z,22.33
2022-07-28T02:14:39.033Z,22.34
2022-07-28T02:17:18.468Z,22.33
2022-07-28T02:19:50.975Z,22.35
2022-07-28T02:22:23.399Z,22.35
2022-07-28T02:24:55.547Z,22.34
2022-07-28T02:27:49.237Z,22.34
2022-07-28T02:31:06.040Z,22.34
2022-07-28T02:33:58.834Z,22.35
2022-07-28T02:36:54.997Z,22.36
2022-07-28T02:40:00.953Z,22.33
2022-07-28T02:46:31.034Z,22.41
2022-07-28T02:50:13.127Z,22.45
2022-07-28T02:57:21.826Z,22.52
2022-07-28T03:00:43.362Z,22.56
2022-07-28T03:10:33.442Z,22.80
2022-07-28T03:22:34.762Z,23.07
2022-07-28T03:26:03.750Z,23.17
2022-07-28T03:29:32.103Z,23.28
2022-07-28T03:37:05.514Z,23.46
2022-07-28T03:40:00.088Z,23.53
2022-07-28T03:43:05.106Z,23.60
2022-07-28T03:45:49.333Z,23.68
2022-07-28T03:48:43.166Z,23.72
2022-07-28T03:51:16.343Z,23.80
2022-07-28T03:54:12.957Z,23.88
2022-07-28T03:59:44.737Z,23.97
2022-07-28T04:02:43.611Z,24.03
2022-07-28T04:05:42.063Z,24.07
2022-07-28T04:08:12.687Z,24.12
2022-07-28T04:11:01.097Z,24.15
2022-07-28T04:13:47.803Z,24.21
2022-07-28T04:16:30.134Z,24.27
2022-07-28T04:19:01.481Z,24.29
2022-07-28T04:21:32.613Z,24.36
2022-07-28T04:24:06.712Z,24.42
2022-07-28T04:27:20.365Z,24.48
2022-07-28T04:30:31.426Z,24.49
2022-07-28T04:37:36.119Z,24.56
2022-07-28T04:52:13.878Z,24.87
2022-07-28T04:54:37.457Z,24.92
2022-07-28T05:04:44.871Z,25.10
2022-07-28T05:07:42.471Z,25.16
2022-07-28T05:10:15.651Z,25.20
2022-07-28T05:12:49.087Z,25.28
2022-07-28T05:15:26.448Z,25.36
2022-07-28T05:18:08.864Z,25.39
2022-07-28T05:20:39.823Z,25.44
2022-07-28T05:23:13.343Z,25.45
2022-07-28T05:25:50.407Z,25.45
2022-07-28T05:28:23.830Z,25.48
2022-07-28T05:30:58.198Z,25.50
2022-07-28T05:33:32.124Z,25.56
2022-07-28T05:36:03.435Z,25.56
2022-07-28T05:38:35.145Z,25.56
2022-07-28T05:41:05.997Z,25.55
2022-07-28T05:43:43.181Z,25.55
2022-07-28T05:46:37.295Z,25.58
2022-07-28T05:49:07.856Z,25.60
2022-07-28T05:51:41.843Z,25.64
2022-07-28T05:54:20.451Z,25.66
2022-07-28T05:56:58.226Z,25.69
2022-07-28T05:59:30.415Z,25.73
2022-07-28T06:02:03.288Z,25.73
2022-07-28T06:04:46.252Z,25.78
2022-07-28T06:07:18.716Z,25.83
2022-07-28T06:09:49.871Z,25.86
2022-07-28T06:12:20.800Z,25.91
2022-07-28T06:14:56.127Z,25.98
2022-07-28T06:17:29.762Z,26.01
2022-07-28T06:20:03.338Z,26.01
2022-07-28T06:22:57.725Z,26.01
2022-07-28T06:25:30.871Z,25.97
2022-07-28T06:28:04.999Z,25.95
2022-07-28T06:30:37.849Z,25.93
2022-07-28T06:33:15.288Z,25.92
2022-07-28T06:35:51.362Z,25.91
2022-07-28T06:38:31.257Z,25.94
2022-07-28T06:41:02.426Z,25.99
2022-07-28T06:43:39.037Z,26.03
2022-07-28T06:49:58.687Z,26.12
2022-07-28T07:17:55.307Z,26.30
2022-07-28T07:20:53.100Z,26.33
2022-07-28T07:23:27.081Z,26.31
2022-07-28T07:25:59.216Z,26.34
2022-07-28T07:28:30.750Z,26.37
2022-07-28T07:31:01.978Z,26.40
2022-07-28T07:33:39.208Z,26.42
2022-07-28T07:36:13.706Z,26.41
2022-07-28T07:38:44.669Z,26.47
2022-07-28T07:41:22.363Z,26.50
2022-07-28T07:43:53.597Z,26.54
2022-07-28T07:46:26.976Z,26.59
2022-07-28T07:49:00.768Z,26.64
2022-07-28T07:51:31.470Z,26.69
2022-07-28T07:54:02.116Z,26.75
2022-07-28T07:56:40.781Z,26.80
2022-07-28T07:59:14.692Z,26.86
2022-07-28T08:01:45.454Z,26.92
2022-07-28T08:04:19.680Z,27.00
2022-07-28T08:06:59.484Z,27.10
2022-07-28T08:09:33.743Z,27.15
2022-07-28T08:12:07.968Z,27.18
2022-07-28T08:14:38.050Z,27.19
2022-07-28T08:24:09.153Z,27.31
2022-07-28T08:26:50.821Z,27.34
2022-07-28T08:29:47.756Z,27.34
2022-07-28T08:32:56.957Z,27.34
2022-07-28T08:39:12.295Z,27.25
2022-07-28T08:42:09.909Z,27.25
2022-07-28T08:52:21.061Z,27.25
2022-07-28T08:55:35.694Z,27.28
2022-07-28T08:59:01.360Z,27.29
2022-07-28T09:01:39.136Z,27.34
2022-07-28T09:04:20.344Z,27.46
2022-07-28T09:07:06.739Z,27.54
2022-07-28T09:09:36.543Z,27.65
2022-07-28T09:12:08.439Z,27.69
2022-07-28T09:14:39.102Z,27.74
2022-07-28T09:17:09.957Z,27.78
2022-07-28T09:19:40.407Z,27.78
2022-07-28T09:22:11.029Z,27.83
2022-07-28T09:24:48.385Z,27.93
2022-07-28T09:27:19.536Z,28.07
2022-07-28T09:30:06.149Z,28.14
2022-07-28T09:32:46.979Z,28.10
2022-07-28T09:35:28.594Z,28.02
2022-07-28T09:38:04.144Z,27.94
2022-07-28T09:40:35.956Z,27.87
2022-07-28T09:43:06.665Z,27.80
2022-07-28T09:49:42.997Z,27.79
2022-07-28T09:52:55.937Z,27.71
2022-07-28T09:55:52.735Z,27.58
2022-07-28T09:59:38.748Z,27.50
2022-07-28T10:02:12.614Z,27.40
2022-07-28T10:04:52.115Z,27.33
2022-07-28T10:23:47.098Z,27.03
2022-07-28T10:26:56.969Z,27.00
2022-07-28T10:29:48.550Z,26.93
2022-07-28T10:32:34.535Z,26.90
2022-07-28T10:35:14.109Z,26.85
2022-07-28T10:38:04.177Z,26.80
2022-07-28T10:40:49.039Z,26.74
2022-07-28T10:43:54.161Z,26.69
2022-07-28T10:46:25.652Z,26.64
2022-07-28T10:49:10.251Z,26.61
2022-07-28T10:52:06.572Z,26.55
2022-07-28T10:55:06.536Z,26.49
2022-07-28T10:57:45.921Z,26.43
2022-07-28T11:00:53.028Z,26.36
2022-07-28T11:03:48.839Z,26.31
2022-07-28T11:11:30.398Z,26.16
2022-07-28T11:14:53.304Z,26.07
2022-07-28T11:21:17.210Z,25.91
2022-07-28T11:24:31.473Z,25.85
2022-07-28T11:27:08.176Z,25.76
2022-07-28T11:29:48.647Z,25.74
2022-07-28T11:32:19.259Z,25.66
2022-07-28T11:35:11.030Z,25.65
2022-07-28T11:38:20.231Z,25.62
2022-07-28T11:41:19.862Z,25.57
2022-07-28T11:44:48.444Z,25.51
2022-07-28T11:47:37.443Z,25.46
2022-07-28T11:50:21.933Z,25.41
2022-07-28T11:53:02.058Z,25.36
2022-07-28T12:00:12.331Z,25.29
2022-07-28T12:02:52.016Z,25.21
2022-07-28T12:05:25.515Z,25.15
2022-07-28T12:07:59.990Z,25.11
2022-07-28T12:10:56.022Z,25.04
2022-07-28T12:13:30.698Z,24.97
2022-07-28T12:16:01.822Z,24.92
2022-07-28T12:18:34.579Z,24.87
2022-07-28T12:21:09.018Z,24.83
2022-07-28T12:23:45.818Z,24.81
2022-07-28T12:26:49.509Z,24.77
2022-07-28T12:33:22.262Z,24.66
2022-07-28T12:36:27.531Z,24.64
2022-07-28T12:39:07.259Z,24.60
2022-07-28T12:41:50.055Z,24.56
2022-07-28T12:44:22.139Z,24.51
2022-07-28T12:46:53.480Z,24.47
2022-07-28T12:49:29.160Z,24.47
2022-07-28T12:52:03.205Z,24.45
2022-07-28T12:54:40.268Z,24.47
2022-07-28T12:57:10.971Z,24.44
2022-07-28T13:03:28.254Z,24.41
2022-07-28T13:06:41.941Z,24.37
2022-07-28T13:10:15.203Z,24.34
2022-07-28T13:13:17.198Z,24.29
2022-07-28T13:16:12.370Z,24.23
2022-07-28T13:19:43.194Z,24.22
2022-07-28T13:22:50.487Z,24.14
2022-07-28T13:25:23.099Z,24.12
2022-07-28T13:35:04.506Z,24.01
2022-07-28T13:41:14.890Z,24.00
2022-07-28T13:43:50.577Z,23.96
2022-07-28T13:46:22.420Z,23.94
2022-07-28T13:48:57.387Z,23.91
2022-07-28T13:51:31.362Z,23.88
2022-07-28T13:54:09.385Z,23.87
2022-07-28T13:56:46.109Z,23.86
2022-07-28T13:59:22.062Z,23.82
2022-07-28T14:01:54.387Z,23.78
2022-07-28T14:04:27.948Z,23.77
2022-07-28T14:07:06.084Z,23.73
2022-07-28T14:09:43.420Z,23.70
2022-07-28T14:12:15.003Z,23.67
2022-07-28T14:14:49.716Z,23.66
2022-07-28T14:17:45.219Z,23.59
2022-07-28T14:20:27.287Z,23.63
2022-07-28T14:23:12.850Z,23.59
2022-07-28T14:25:50.862Z,23.57
2022-07-28T14:29:00.458Z,23.55
2022-07-28T14:32:00.765Z,23.53
2022-07-28T14:34:43.663Z,23.49
2022-07-28T14:37:19.908Z,23.49
2022-07-28T14:40:28.197Z,23.47
2022-07-28T14:43:25.454Z,23.47
2022-07-28T14:46:16.411Z,23.40
2022-07-28T14:52:04.713Z,23.38
2022-07-28T14:54:49.605Z,23.35
2022-07-28T14:58:17.476Z,23.38
2022-07-28T15:01:18.666Z,23.37
2022-07-28T15:03:50.795Z,23.36
2022-07-28T15:06:28.748Z,23.33
2022-07-28T15:09:04.140Z,23.29
2022-07-28T15:11:35.806Z,23.27
2022-07-28T15:14:15.023Z,23.27
2022-07-28T15:16:47.181Z,23.23
2022-07-28T15:19:18.828Z,23.23
2022-07-28T15:21:53.599Z,23.23
2022-07-28T15:24:29.021Z,23.20
2022-07-28T15:27:01.806Z,23.20
2022-07-28T15:29:35.436Z,23.20
2022-07-28T15:32:10.740Z,23.18
2022-07-28T15:34:43.883Z,23.17
2022-07-28T15:37:15.446Z,23.16
2022-07-28T15:39:50.493Z,23.15
2022-07-28T15:42:24.151Z,23.13
2022-07-28T15:45:01.267Z,23.15
2022-07-28T15:47:33.427Z,23.12
2022-07-28T15:50:04.779Z,23.11
2022-07-28T15:52:35.790Z,23.10
2022-07-28T15:55:07.091Z,23.06
2022-07-28T15:57:40.775Z,23.04
2022-07-28T16:00:15.121Z,23.01
2022-07-28T16:02:46.403Z,22.98
2022-07-28T16:05:17.795Z,22.97
2022-07-28T16:07:48.632Z,22.94
2022-07-28T16:10:31.968Z,22.89
2022-07-28T16:13:04.486Z,22.82
2022-07-28T16:15:36.635Z,22.78
2022-07-28T16:18:11.652Z,22.71
2022-07-28T16:20:42.760Z,22.68
2022-07-28T16:23:14.050Z,22.63
2022-07-28T16:25:45.323Z,22.63
2022-07-28T16:28:22.230Z,22.65
2022-07-28T16:30:54.414Z,22.63
2022-07-28T16:33:33.526Z,22.59
2022-07-28T16:36:05.994Z,22.59
2022-07-28T16:38:37.372Z,22.57
2022-07-28T16:41:13.007Z,22.53
2022-07-28T16:43:48.315Z,22.54
2022-07-28T16:46:19.113Z,22.50
2022-07-28T16:48:50.368Z,22.48
2022-07-28T16:51:24.208Z,22.43
2022-07-28T16:53:57.725Z,22.42
2022-07-28T16:56:31.797Z,22.38
2022-07-28T16:59:02.943Z,22.39
2022-07-28T17:01:33.915Z,22.42
2022-07-28T17:04:04.894Z,22.40
2022-07-28T17:06:35.778Z,22.41
2022-07-28T17:09:06.869Z,22.40
2022-07-28T17:11:37.784Z,22.39
2022-07-28T17:14:14.353Z,22.38
2022-07-28T17:16:44.645Z,22.38
2022-07-28T17:19:15.241Z,22.34
2022-07-28T17:21:46.585Z,22.33
2022-07-28T17:24:17.747Z,22.34
2022-07-28T17:29:39.803Z,22.33
2022-07-28T17:32:10.468Z,22.32
2022-07-28T17:34:40.898Z,22.29
2022-07-28T17:37:12.285Z,22.33
2022-07-28T17:39:42.800Z,22.30
2022-07-28T17:42:13.265Z,22.29
2022-07-28T17:44:43.826Z,22.28
2022-07-28T17:47:14.546Z,22.27
2022-07-28T17:49:47.206Z,22.28
2022-07-28T17:52:17.973Z,22.27
2022-07-28T17:55:06.787Z,22.27
2022-07-28T17:57:39.709Z,22.24
2022-07-28T18:00:10.694Z,22.27
2022-07-28T18:02:44.291Z,22.25
2022-07-28T18:05:15.151Z,22.22
2022-07-28T18:07:50.170Z,22.22
2022-07-28T18:10:24.964Z,22.19
2022-07-28T18:12:57.739Z,22.16
2022-07-28T18:15:30.650Z,22.10
2022-07-28T18:18:02.006Z,22.08
2022-07-28T18:20:33.142Z,22.11
2022-07-28T18:23:03.760Z,22.12
2022-07-28T18:25:34.874Z,22.08
2022-07-28T18:28:09.365Z,22.09
2022-07-28T18:30:40.117Z,22.07
2022-07-28T18:33:10.924Z,22.07
2022-07-28T18:35:42.060Z,22.05
2022-07-28T18:38:15.451Z,22.05
2022-07-28T18:40:45.861Z,22.01
2022-07-28T18:43:23.367Z,22.00
2022-07-28T18:45:53.953Z,21.98
2022-07-28T18:48:27.037Z,21.98
2022-07-28T18:50:57.615Z,21.97
2022-07-28T18:53:28.250Z,22.02
2022-07-28T18:55:58.187Z,22.05
2022-07-28T18:58:28.837Z,22.05
2022-07-28T19:01:00.459Z,22.03
2022-07-28T19:03:30.960Z,22.03
2022-07-28T19:06:01.482Z,22.05
2022-07-28T19:08:32.057Z,22.05
2022-07-28T19:11:02.472Z,22.05
2022-07-28T19:13:32.989Z,22.00
2022-07-28T19:16:03.709Z,21.98
2022-07-28T19:18:34.320Z,21.97
2022-07-28T19:21:04.753Z,21.93
2022-07-28T19:23:35.281Z,21.90
2022-07-28T19:26:05.879Z,21.87
2022-07-28T19:28:36.345Z,21.86
2022-07-28T19:31:10.009Z,21.84
2022-07-28T19:33:44.144Z,21.85
2022-07-28T19:36:18.053Z,21.86
2022-07-28T19:38:48.182Z,21.86
2022-07-28T19:41:18.298Z,21.86
2022-07-28T19:43:48.444Z,21.87
2022-07-28T19:46:20.299Z,21.84
2022-07-28T19:48:50.763Z,21.86
2022-07-28T19:51:21.309Z,21.84
2022-07-28T19:53:52.091Z,21.82
2022-07-28T19:56:28.801Z,21.82
2022-07-28T19:59:01.857Z,21.80
2022-07-28T20:01:32.771Z,21.80
2022-07-28T20:04:05.425Z,21.79
2022-07-28T20:06:35.960Z,21.79
2022-07-28T20:09:06.837Z,21.78
2022-07-28T20:11:38.247Z,21.80
2022-07-28T20:14:08.985Z,21.77
2022-07-28T20:16:39.249Z,21.79
2022-07-28T20:19:09.702Z,21.77
2022-07-28T20:21:40.478Z,21.75
2022-07-28T20:24:11.306Z,21.73
2022-07-28T20:26:41.697Z,21.70
2022-07-28T20:29:12.098Z,21.72
2022-07-28T20:31:42.736Z,21.70
2022-07-28T20:34:14.210Z,21.72
2022-07-28T20:36:45.131Z,21.70
2022-07-28T20:39:43.433Z,21.68
2022-07-28T20:42:08.863Z,21.68
2022-07-28T20:44:39.194Z,21.69
2022-07-28T20:47:09.775Z,21.69
2022-07-28T20:49:40.259Z,21.66
2022-07-28T20:52:10.926Z,21.62
2022-07-28T20:54:41.255Z,21.62
2022-07-28T20:57:12.223Z,21.60
2022-07-28T20:59:43.219Z,21.60
2022-07-28T21:02:13.890Z,21.60
2022-07-28T21:04:44.920Z,21.55
2022-07-28T21:07:15.786Z,21.52
2022-07-28T21:09:47.768Z,21.49
2022-07-28T21:12:18.053Z,21.47
2022-07-28T21:14:48.447Z,21.47
2022-07-28T21:17:18.476Z,21.46
2022-07-28T21:19:51.276Z,21.47
2022-07-28T21:22:23.292Z,21.45
2022-07-28T21:24:56.829Z,21.47
2022-07-28T21:27:27.021Z,21.48
2022-07-28T21:32:25.560Z,21.49
2022-07-28T21:34:55.678Z,21.47
2022-07-28T21:37:25.644Z,21.50
2022-07-28T21:39:55.775Z,21.49
2022-07-28T21:42:25.896Z,21.49
2022-07-28T21:44:55.921Z,21.50
2022-07-28T21:47:26.282Z,21.50
2022-07-28T21:49:57.232Z,21.51
2022-07-28T21:52:27.540Z,21.52
2022-07-28T21:54:57.645Z,21.53
2022-07-28T21:57:27.739Z,21.53
2022-07-28T21:59:58.434Z,21.53
2022-07-28T22:02:29.261Z,21.52
2022-07-28T22:04:59.591Z,21.53
2022-07-28T22:07:29.812Z,21.56
2022-07-28T22:09:59.340Z,21.58
2022-07-28T22:12:29.691Z,21.61
2022-07-28T22:14:59.901Z,21.63
2022-07-28T22:17:29.936Z,21.67
2022-07-28T22:20:00.351Z,21.74
2022-07-28T22:22:30.625Z,21.78
2022-07-28T22:25:00.856Z,21.84
2022-07-28T22:27:31.685Z,21.86
2022-07-28T22:30:02.036Z,21.92
2022-07-28T22:32:32.654Z,21.97
2022-07-28T22:35:02.991Z,22.03
2022-07-28T22:37:33.690Z,22.05
2022-07-28T22:40:03.986Z,22.12
2022-07-28T22:42:34.253Z,22.12
2022-07-28T22:45:04.556Z,22.20
2022-07-28T22:47:35.182Z,22.27
2022-07-28T22:50:07.398Z,22.31
2022-07-28T22:52:38.437Z,22.37
2022-07-28T22:55:09.533Z,22.41
2022-07-28T22:57:40.355Z,22.49
2022-07-28T23:00:12.208Z,22.58
2022-07-28T23:02:43.192Z,22.62
2022-07-28T23:05:14.154Z,22.71
2022-07-28T23:07:53.515Z,22.80
2022-07-28T23:10:28.126Z,22.86
2022-07-28T23:12:58.847Z,22.91
2022-07-28T23:15:39.436Z,23.00
2022-07-28T23:18:14.961Z,23.08
2022-07-28T23:20:46.320Z,23.15
2022-07-28T23:23:20.115Z,23.21
2022-07-28T23:25:53.447Z,23.29
2022-07-28T23:28:24.504Z,23.35
2022-07-28T23:30:55.220Z,23.41
2022-07-28T23:33:56.095Z,23.49
2022-07-28T23:36:26.140Z,23.57
2022-07-28T23:38:59.765Z,23.65
2022-07-28T23:41:30.078Z,23.70
2022-07-28T23:44:00.633Z,23.75
2022-07-28T23:46:30.896Z,23.81
2022-07-28T23:49:00.400Z,23.87
2022-07-28T23:51:41.854Z,23.92
2022-07-28T23:54:18.020Z,23.97
2022-07-28T23:56:48.326Z,24.02
2022-07-28T23:59:18.666Z,24.06
